createdAt,value
2019-02-14T00:00:38.095Z,4.85
2019-02-14T00:02:03.949Z,4.30
2019-02-14T00:03:33.922Z,3.65
2019-02-14T00:05:06.244Z,3.92
2019-02-14T00:06:44.949Z,4.10
2019-02-14T00:08:13.325Z,3.75
2019-02-14T00:09:38.738Z,3.67
2019-02-14T00:12:34.453Z,3.62
2019-02-14T00:13:59.972Z,4.58
2019-02-14T00:21:37.770Z,4.28
2019-02-14T00:23:03.264Z,3.58
2019-02-14T00:24:29.300Z,4.30
2019-02-14T00:25:54.796Z,4.20
2019-02-14T00:29:44.381Z,3.62
2019-02-14T00:31:11.238Z,4.10
2019-02-14T00:32:38.768Z,3.95
2019-02-14T00:35:39.892Z,4.50
2019-02-14T00:37:05.547Z,5.65
2019-02-14T00:38:31.018Z,3.95
2019-02-14T00:39:56.542Z,5.37
2019-02-14T00:41:39.925Z,4.87
2019-02-14T00:43:05.429Z,4.20
2019-02-14T00:44:31.078Z,3.80
2019-02-14T00:48:32.453Z,4.12
2019-02-14T00:50:08.529Z,3.17
2019-02-14T00:51:34.124Z,2.98
2019-02-14T00:52:59.583Z,3.77
2019-02-14T00:54:23.924Z,3.02
2019-02-14T00:55:49.960Z,3.15
2019-02-14T00:57:18.090Z,3.25
2019-02-14T00:58:43.679Z,2.87
2019-02-14T01:00:12.281Z,3.55
2019-02-14T01:01:37.853Z,3.95
2019-02-14T01:03:03.445Z,3.42
2019-02-14T01:04:32.160Z,4.05
2019-02-14T01:05:59.232Z,3.45
2019-02-14T01:11:32.957Z,3.40
2019-02-14T01:14:42.571Z,3.10
2019-02-14T01:16:12.086Z,3.35
2019-02-14T01:17:37.593Z,3.45
2019-02-14T01:19:09.469Z,3.87
2019-02-14T01:20:35.023Z,3.12
2019-02-14T01:22:00.865Z,3.15
2019-02-14T01:23:28.007Z,4.00
2019-02-14T01:31:22.792Z,2.33
2019-02-14T01:32:48.755Z,3.02
2019-02-14T01:34:15.713Z,3.98
2019-02-14T01:35:42.821Z,3.58
2019-02-14T01:37:13.097Z,2.47
2019-02-14T01:38:39.242Z,2.62
2019-02-14T01:40:47.303Z,2.75
2019-02-14T01:42:12.924Z,2.98
2019-02-14T01:44:32.466Z,2.77
2019-02-14T01:45:58.688Z,2.50
2019-02-14T01:49:41.015Z,3.30
2019-02-14T01:51:34.623Z,4.05
2019-02-14T01:54:48.290Z,2.95
2019-02-14T01:58:13.755Z,3.80
2019-02-14T01:59:50.195Z,2.83
2019-02-14T02:01:19.699Z,2.80
2019-02-14T02:02:45.357Z,2.60
2019-02-14T02:08:42.291Z,3.60
2019-02-14T02:10:09.361Z,2.30
2019-02-14T02:17:39.811Z,2.12
2019-02-14T02:29:24.591Z,2.40
2019-02-14T02:34:56.443Z,2.40
2019-02-14T02:43:26.765Z,2.95
2019-02-14T02:45:14.535Z,3.27
2019-02-14T03:22:27.736Z,2.70
2019-02-14T04:10:03.855Z,2.37
2019-02-14T04:14:06.372Z,2.65
2019-02-14T04:39:18.066Z,2.62
2019-02-14T05:14:17.906Z,2.75
2019-02-14T05:26:45.053Z,1.70
2019-02-14T05:31:28.326Z,2.72
2019-02-14T06:08:39.168Z,2.37
2019-02-14T07:08:48.304Z,1.92
2019-02-14T07:10:26.822Z,1.90
2019-02-14T07:12:04.380Z,1.82
2019-02-14T07:15:26.542Z,2.15
2019-02-14T07:24:49.495Z,2.00
2019-02-14T07:26:31.894Z,1.75
2019-02-14T07:37:30.138Z,1.98
2019-02-14T07:39:07.572Z,1.87
2019-02-14T07:49:56.318Z,2.40
2019-02-14T07:57:11.317Z,2.00
2019-02-14T07:58:48.060Z,2.00
2019-02-14T08:02:11.794Z,2.20
2019-02-14T08:04:07.987Z,2.00
2019-02-14T08:09:59.194Z,2.20
2019-02-14T08:13:28.807Z,2.45
2019-02-14T08:21:22.672Z,1.70
2019-02-14T08:47:59.606Z,2.37
2019-02-14T08:49:37.555Z,2.17
2019-02-14T08:51:07.468Z,2.75
2019-02-14T08:52:34.679Z,2.15
2019-02-14T08:54:07.047Z,1.70
2019-02-14T08:55:34.661Z,1.75
2019-02-14T08:57:09.054Z,1.70
2019-02-14T08:58:38.983Z,1.98
2019-02-14T09:00:05.370Z,2.10
2019-02-14T09:03:54.001Z,3.02
2019-02-14T09:05:19.519Z,1.70
2019-02-14T09:06:45.062Z,2.67
2019-02-14T09:08:10.993Z,2.05
2019-02-14T09:09:36.521Z,2.10
2019-02-14T09:11:02.793Z,2.52
2019-02-14T09:12:28.363Z,1.65
2019-02-14T09:13:53.932Z,2.45
2019-02-14T09:15:24.313Z,1.85
2019-02-14T09:16:49.767Z,2.02
2019-02-14T09:18:15.271Z,1.37
2019-02-14T09:19:40.787Z,2.37
2019-02-14T09:21:06.284Z,2.42
2019-02-14T09:22:32.199Z,1.75
2019-02-14T09:23:57.729Z,2.02
2019-02-14T09:25:23.165Z,1.52
2019-02-14T09:26:48.695Z,1.95
2019-02-14T09:28:14.786Z,1.65
2019-02-14T09:29:40.337Z,2.17
2019-02-14T09:31:06.851Z,2.12
2019-02-14T09:32:32.355Z,2.55
2019-02-14T09:33:57.896Z,2.52
2019-02-14T09:35:23.471Z,2.12
2019-02-14T09:36:48.929Z,2.00
2019-02-14T09:38:15.331Z,2.22
2019-02-14T09:39:41.189Z,2.15
2019-02-14T09:42:07.991Z,2.80
2019-02-14T09:43:33.606Z,2.00
2019-02-14T09:44:59.059Z,2.10
2019-02-14T09:46:24.536Z,1.77
2019-02-14T09:47:50.047Z,1.92
2019-02-14T09:49:15.534Z,2.22
2019-02-14T09:50:40.977Z,2.60
2019-02-14T09:52:06.579Z,1.80
2019-02-14T09:53:32.054Z,2.17
2019-02-14T09:54:57.516Z,1.92
2019-02-14T09:56:22.961Z,2.00
2019-02-14T09:57:48.422Z,1.90
2019-02-14T09:59:13.987Z,2.20
2019-02-14T10:00:39.539Z,2.40
2019-02-14T10:02:05.146Z,2.20
2019-02-14T10:03:30.600Z,2.25
2019-02-14T10:04:56.122Z,1.90
2019-02-14T10:06:21.584Z,1.95
2019-02-14T10:07:47.055Z,1.92
2019-02-14T10:09:12.523Z,1.60
2019-02-14T10:10:38.009Z,1.60
2019-02-14T10:12:03.511Z,2.62
2019-02-14T10:13:28.952Z,2.23
2019-02-14T10:14:54.447Z,2.30
2019-02-14T10:16:20.117Z,1.70
2019-02-14T10:17:45.701Z,2.20
2019-02-14T10:19:11.248Z,2.37
2019-02-14T10:20:36.958Z,2.40
2019-02-14T10:22:02.430Z,2.33
2019-02-14T10:23:27.909Z,1.77
2019-02-14T10:24:53.384Z,1.80
2019-02-14T10:26:18.886Z,1.80
2019-02-14T10:27:44.619Z,2.07
2019-02-14T10:29:10.203Z,2.23
2019-02-14T10:30:35.678Z,2.67
2019-02-14T10:32:01.164Z,2.60
2019-02-14T10:33:26.643Z,2.40
2019-02-14T10:34:52.063Z,2.63
2019-02-14T10:36:17.540Z,2.27
2019-02-14T10:37:43.130Z,1.87
2019-02-14T10:39:08.671Z,1.63
2019-02-14T10:40:34.222Z,1.67
2019-02-14T10:41:59.695Z,2.10
2019-02-14T10:43:25.206Z,2.00
2019-02-14T10:44:50.652Z,2.30
2019-02-14T10:46:16.126Z,2.65
2019-02-14T10:47:41.659Z,2.10
2019-02-14T10:49:07.155Z,1.70
2019-02-14T10:50:32.689Z,2.00
2019-02-14T10:51:58.126Z,2.33
2019-02-14T10:53:23.603Z,2.20
2019-02-14T10:54:49.140Z,2.00
2019-02-14T10:56:14.595Z,1.90
2019-02-14T10:57:40.231Z,1.70
2019-02-14T10:59:06.040Z,1.83
2019-02-14T11:00:31.789Z,1.80
2019-02-14T11:01:57.343Z,2.20
2019-02-14T11:03:23.009Z,1.83
2019-02-14T11:04:48.563Z,2.27
2019-02-14T11:06:14.030Z,1.73
2019-02-14T11:07:39.430Z,1.57
2019-02-14T11:09:06.066Z,1.77
2019-02-14T11:10:31.534Z,2.10
2019-02-14T11:11:57.017Z,1.63
2019-02-14T11:13:22.467Z,2.00
2019-02-14T11:14:47.940Z,1.70
2019-02-14T11:16:13.480Z,2.80
2019-02-14T11:17:39.070Z,2.77
2019-02-14T11:19:04.523Z,2.53
2019-02-14T11:20:29.997Z,2.30
2019-02-14T11:21:55.500Z,1.93
2019-02-14T11:23:20.901Z,2.70
2019-02-14T11:24:46.448Z,2.30
2019-02-14T11:26:12.020Z,2.20
2019-02-14T11:27:37.516Z,2.40
2019-02-14T11:29:03.074Z,2.07
2019-02-14T11:30:28.611Z,2.90
2019-02-14T11:31:54.254Z,2.40
2019-02-14T11:33:19.701Z,1.90
2019-02-14T11:34:45.109Z,1.57
2019-02-14T11:36:10.569Z,2.20
2019-02-14T11:37:36.039Z,1.80
2019-02-14T11:39:01.433Z,1.63
2019-02-14T11:40:27.207Z,1.97
2019-02-14T11:41:52.749Z,2.10
2019-02-14T11:43:18.229Z,2.60
2019-02-14T11:44:43.783Z,2.20
2019-02-14T11:46:09.243Z,2.30
2019-02-14T11:47:34.716Z,2.60
2019-02-14T11:49:00.186Z,2.50
2019-02-14T11:50:25.744Z,2.50
2019-02-14T11:51:51.378Z,2.57
2019-02-14T11:53:16.903Z,2.00
2019-02-14T11:54:42.389Z,1.93
2019-02-14T11:56:09.983Z,2.40
2019-02-14T11:57:35.347Z,2.90
2019-02-14T11:59:00.837Z,2.57
2019-02-14T12:00:27.443Z,3.10
2019-02-14T12:01:55.376Z,2.50
2019-02-14T12:03:20.149Z,2.07
2019-02-14T12:04:45.595Z,2.20
2019-02-14T12:06:17.303Z,3.20
2019-02-14T12:07:38.314Z,2.47
2019-02-14T12:09:05.167Z,2.87
2019-02-14T12:10:30.655Z,2.50
2019-02-14T12:11:56.130Z,2.80
2019-02-14T12:13:21.940Z,2.03
2019-02-14T12:14:47.448Z,2.00
2019-02-14T12:16:12.906Z,2.57
2019-02-14T12:17:38.468Z,2.50
2019-02-14T12:19:04.023Z,2.07
2019-02-14T12:20:29.514Z,3.10
2019-02-14T12:21:55.004Z,2.80
2019-02-14T12:23:20.550Z,2.40
2019-02-14T12:24:45.974Z,2.53
2019-02-14T12:26:11.588Z,2.80
2019-02-14T12:27:37.043Z,2.73
2019-02-14T12:29:02.477Z,3.00
2019-02-14T12:30:28.032Z,3.00
2019-02-14T12:31:53.534Z,2.30
2019-02-14T12:33:18.936Z,2.63
2019-02-14T12:34:44.403Z,3.23
2019-02-14T12:36:09.875Z,2.17
2019-02-14T12:37:35.290Z,2.73
2019-02-14T12:39:08.859Z,3.23
2019-02-14T12:40:27.945Z,3.20
2019-02-14T12:41:53.424Z,2.70
2019-02-14T12:43:18.945Z,2.40
2019-02-14T12:44:44.497Z,2.80
2019-02-14T12:46:10.011Z,2.20
2019-02-14T12:47:35.453Z,3.50
2019-02-14T12:49:00.985Z,3.23
2019-02-14T12:50:26.467Z,2.60
2019-02-14T12:51:51.959Z,2.90
2019-02-14T12:53:17.428Z,3.10
2019-02-14T12:54:42.901Z,3.00
2019-02-14T12:56:08.471Z,3.57
2019-02-14T12:57:34.054Z,3.03
2019-02-14T12:58:59.514Z,2.70
2019-02-14T13:00:25.077Z,4.57
2019-02-14T13:01:50.578Z,5.90
2019-02-14T13:03:16.010Z,7.60
2019-02-14T13:04:41.493Z,7.87
2019-02-14T13:06:08.331Z,6.90
2019-02-14T13:07:33.985Z,4.70
2019-02-14T13:08:59.502Z,5.10
2019-02-14T13:10:25.094Z,4.73
2019-02-14T13:11:50.593Z,3.33
2019-02-14T13:13:16.021Z,3.43
2019-02-14T13:14:41.471Z,3.70
2019-02-14T13:16:06.945Z,3.33
2019-02-14T13:17:32.455Z,2.63
2019-02-14T13:18:58.132Z,3.70
2019-02-14T13:20:23.733Z,3.50
2019-02-14T13:21:49.311Z,3.23
2019-02-14T13:23:14.739Z,3.77
2019-02-14T13:24:40.275Z,2.80
2019-02-14T13:26:05.686Z,3.40
2019-02-14T13:27:31.195Z,3.23
2019-02-14T13:28:56.753Z,2.70
2019-02-14T13:30:23.465Z,3.70
2019-02-14T13:31:49.083Z,2.60
2019-02-14T13:33:14.738Z,3.00
2019-02-14T13:34:40.188Z,2.73
2019-02-14T13:36:06.626Z,3.37
2019-02-14T13:37:32.092Z,3.27
2019-02-14T13:38:57.762Z,2.93
2019-02-14T13:40:23.446Z,3.23
2019-02-14T13:41:48.951Z,3.27
2019-02-14T13:43:14.505Z,4.00
2019-02-14T13:44:39.978Z,3.80
2019-02-14T13:46:05.555Z,2.90
2019-02-14T13:47:31.157Z,2.97
2019-02-14T13:48:56.727Z,2.90
2019-02-14T13:50:22.210Z,3.00
2019-02-14T13:51:47.679Z,2.50
2019-02-14T13:53:13.178Z,2.67
2019-02-14T13:54:38.675Z,3.27
2019-02-14T13:56:04.145Z,3.00
2019-02-14T13:57:29.633Z,3.33
2019-02-14T13:58:55.199Z,3.27
2019-02-14T14:00:23.707Z,2.87
2019-02-14T14:01:49.236Z,2.90
2019-02-14T14:03:14.880Z,4.07
2019-02-14T14:04:40.442Z,3.03
2019-02-14T14:06:05.867Z,2.80
2019-02-14T14:07:40.102Z,3.53
2019-02-14T14:08:58.390Z,4.00
2019-02-14T14:10:23.865Z,3.27
2019-02-14T14:11:49.323Z,2.13
2019-02-14T14:13:14.877Z,3.07
2019-02-14T14:14:40.378Z,3.40
2019-02-14T14:16:05.947Z,3.57
2019-02-14T14:17:31.449Z,2.50
2019-02-14T14:19:05.954Z,3.53
2019-02-14T14:20:24.272Z,2.93
2019-02-14T14:21:49.686Z,2.67
2019-02-14T14:23:15.156Z,2.63
2019-02-14T14:24:40.649Z,3.23
2019-02-14T14:26:06.404Z,2.10
2019-02-14T14:27:31.960Z,4.43
2019-02-14T14:28:57.474Z,3.40
2019-02-14T14:30:22.910Z,4.20
2019-02-14T14:31:48.467Z,2.47
2019-02-14T14:33:14.087Z,4.00
2019-02-14T14:34:46.484Z,3.07
2019-02-14T14:36:08.598Z,2.90
2019-02-14T14:37:57.759Z,3.10
2019-02-14T14:39:29.067Z,3.67
2019-02-14T14:43:00.735Z,3.70
2019-02-14T14:44:36.415Z,2.73
2019-02-14T14:46:27.035Z,3.30
2019-02-14T14:47:52.594Z,2.40
2019-02-14T14:49:18.200Z,2.33
2019-02-14T14:50:43.811Z,3.30
2019-02-14T14:52:10.389Z,3.70
2019-02-14T14:53:35.870Z,3.40
2019-02-14T14:55:01.863Z,3.73
2019-02-14T14:56:27.341Z,3.43
2019-02-14T14:57:52.859Z,3.27
2019-02-14T14:59:18.339Z,3.00
2019-02-14T15:00:43.859Z,3.33
2019-02-14T15:02:09.371Z,2.90
2019-02-14T15:03:35.072Z,2.30
2019-02-14T15:05:00.563Z,2.53
2019-02-14T15:06:26.148Z,3.20
2019-02-14T15:07:51.613Z,2.50
2019-02-14T15:09:17.151Z,3.10
2019-02-14T15:10:42.873Z,2.90
2019-02-14T15:12:08.356Z,3.10
2019-02-14T15:13:33.880Z,2.70
2019-02-14T15:14:59.383Z,2.30
2019-02-14T15:16:24.928Z,3.23
2019-02-14T15:17:50.378Z,2.77
2019-02-14T15:19:15.849Z,2.80
2019-02-14T15:20:41.361Z,3.50
2019-02-14T15:22:06.956Z,2.17
2019-02-14T15:23:32.396Z,2.70
2019-02-14T15:24:59.402Z,3.17
2019-02-14T15:26:24.976Z,3.40
2019-02-14T15:27:50.886Z,3.27
2019-02-14T15:29:16.386Z,2.37
2019-02-14T15:30:42.082Z,2.10
2019-02-14T15:32:07.502Z,2.67
2019-02-14T15:33:33.102Z,3.40
2019-02-14T15:34:58.587Z,2.43
2019-02-14T15:36:26.547Z,2.60
2019-02-14T15:37:51.387Z,2.23
2019-02-14T15:39:17.355Z,2.70
2019-02-14T15:40:42.910Z,2.67
2019-02-14T15:42:08.403Z,3.30
2019-02-14T15:43:34.231Z,3.57
2019-02-14T15:44:59.694Z,2.70
2019-02-14T15:46:25.177Z,2.43
2019-02-14T15:47:50.834Z,3.50
2019-02-14T15:49:16.266Z,2.87
2019-02-14T15:50:41.741Z,1.90
2019-02-14T15:52:07.746Z,3.10
2019-02-14T15:53:33.355Z,2.90
2019-02-14T15:54:59.930Z,2.90
2019-02-14T15:56:27.195Z,3.40
2019-02-14T15:57:52.799Z,3.00
2019-02-14T15:59:18.980Z,2.80
2019-02-14T16:00:45.386Z,3.90
2019-02-14T16:02:10.900Z,4.13
2019-02-14T16:03:36.499Z,3.40
2019-02-14T16:05:01.994Z,3.20
2019-02-14T16:06:28.414Z,2.80
2019-02-14T16:07:54.634Z,4.13
2019-02-14T16:09:20.148Z,3.40
2019-02-14T16:10:45.842Z,2.77
2019-02-14T16:12:11.318Z,3.80
2019-02-14T16:13:36.871Z,3.57
2019-02-14T16:15:03.984Z,2.60
2019-02-14T16:16:29.383Z,3.13
2019-02-14T16:17:54.810Z,3.50
2019-02-14T16:19:20.378Z,3.00
2019-02-14T16:20:46.025Z,3.20
2019-02-14T16:22:11.535Z,3.97
2019-02-14T16:23:37.255Z,3.00
2019-02-14T16:25:04.468Z,3.10
2019-02-14T16:26:29.821Z,2.40
2019-02-14T16:27:55.303Z,2.77
2019-02-14T16:29:22.759Z,3.33
2019-02-14T16:30:48.087Z,3.30
2019-02-14T16:32:13.753Z,3.20
2019-02-14T16:33:39.462Z,3.27
2019-02-14T16:35:05.530Z,3.30
2019-02-14T16:36:32.627Z,3.73
2019-02-14T16:37:58.377Z,3.53
2019-02-14T16:39:25.713Z,2.80
2019-02-14T16:40:51.062Z,3.47
2019-02-14T16:42:16.630Z,3.50
2019-02-14T16:43:42.170Z,3.93
2019-02-14T16:45:08.101Z,3.20
2019-02-14T16:46:33.574Z,4.13
2019-02-14T16:47:59.098Z,3.40
2019-02-14T16:49:24.663Z,2.60
2019-02-14T16:50:50.093Z,2.40
2019-02-14T16:52:15.627Z,3.13
2019-02-14T16:53:41.070Z,3.00
2019-02-14T16:55:06.614Z,2.80
2019-02-14T16:56:32.133Z,3.50
2019-02-14T16:57:57.668Z,4.07
2019-02-14T16:59:23.165Z,3.80
2019-02-14T17:00:48.611Z,3.87
2019-02-14T17:02:15.578Z,4.30
2019-02-14T17:03:41.473Z,3.03
2019-02-14T17:05:07.130Z,3.80
2019-02-14T17:06:32.570Z,2.80
2019-02-14T17:07:58.122Z,3.30
2019-02-14T17:09:23.529Z,3.13
2019-02-14T17:10:48.997Z,3.67
2019-02-14T17:12:14.462Z,2.45
2019-02-14T17:13:39.965Z,3.03
2019-02-14T17:15:05.746Z,3.20
2019-02-14T17:16:31.351Z,2.97
2019-02-14T17:17:56.994Z,3.13
2019-02-14T17:19:22.930Z,3.33
2019-02-14T17:20:48.741Z,3.90
2019-02-14T17:22:14.213Z,3.57
2019-02-14T17:23:40.398Z,2.77
2019-02-14T17:25:06.311Z,3.97
2019-02-14T17:26:31.807Z,4.03
2019-02-14T17:27:57.301Z,3.47
2019-02-14T17:29:22.898Z,3.90
2019-02-14T17:30:48.433Z,3.43
2019-02-14T17:32:13.909Z,3.37
2019-02-14T17:33:39.396Z,2.70
2019-02-14T17:35:05.086Z,3.40
2019-02-14T17:36:30.534Z,3.30
2019-02-14T17:37:55.964Z,3.07
2019-02-14T17:39:21.527Z,3.77
2019-02-14T17:40:47.114Z,3.52
2019-02-14T17:42:12.689Z,5.17
2019-02-14T17:43:38.246Z,5.73
2019-02-14T17:45:03.791Z,4.97
2019-02-14T17:46:29.392Z,5.80
2019-02-14T17:47:54.914Z,5.70
2019-02-14T17:49:20.574Z,4.90
2019-02-14T17:50:46.069Z,6.30
2019-02-14T17:52:11.503Z,5.80
2019-02-14T17:53:36.936Z,5.97
2019-02-14T17:55:02.421Z,6.30
2019-02-14T17:56:27.928Z,7.45
2019-02-14T17:57:53.358Z,6.80
2019-02-14T17:59:18.880Z,7.20
2019-02-14T18:00:44.337Z,6.95
2019-02-14T18:02:09.837Z,7.50
2019-02-14T18:03:35.321Z,7.43
2019-02-14T18:05:00.915Z,6.90
2019-02-14T18:06:26.458Z,6.67
2019-02-14T18:07:51.963Z,7.17
2019-02-14T18:09:17.815Z,7.58
2019-02-14T18:10:43.384Z,6.25
2019-02-14T18:12:08.978Z,5.08
2019-02-14T18:13:34.484Z,5.08
2019-02-14T18:15:00.061Z,4.53
2019-02-14T18:16:25.598Z,4.55
2019-02-14T18:17:51.075Z,4.37
2019-02-14T18:19:16.534Z,4.00
2019-02-14T18:20:43.167Z,3.90
2019-02-14T18:22:08.959Z,5.20
2019-02-14T18:23:34.492Z,5.30
2019-02-14T18:24:59.993Z,5.03
2019-02-14T18:26:25.407Z,4.60
2019-02-14T18:27:50.882Z,4.13
2019-02-14T18:29:16.436Z,5.03
2019-02-14T18:30:42.232Z,4.93
2019-02-14T18:32:08.244Z,5.20
2019-02-14T18:33:37.136Z,4.60
2019-02-14T18:35:02.660Z,4.50
2019-02-14T18:36:28.286Z,3.37
2019-02-14T18:37:53.807Z,4.50
2019-02-14T18:39:19.318Z,4.60
2019-02-14T18:40:44.818Z,4.15
2019-02-14T18:42:10.336Z,3.92
2019-02-14T18:43:35.843Z,4.95
2019-02-14T18:45:01.624Z,3.87
2019-02-14T18:46:27.077Z,3.27
2019-02-14T18:47:52.512Z,4.17
2019-02-14T18:49:18.102Z,3.60
2019-02-14T18:50:43.660Z,3.90
2019-02-14T18:52:09.474Z,3.60
2019-02-14T18:53:34.976Z,3.50
2019-02-14T18:55:00.567Z,2.83
2019-02-14T18:56:26.248Z,2.90
2019-02-14T18:57:51.727Z,4.00
2019-02-14T18:59:17.137Z,3.52
2019-02-14T19:00:42.635Z,3.80
2019-02-14T19:02:08.127Z,2.85
2019-02-14T19:03:33.624Z,3.10
2019-02-14T19:04:59.209Z,3.80
2019-02-14T19:06:24.822Z,4.20
2019-02-14T19:07:50.295Z,3.67
2019-02-14T19:09:15.844Z,4.10
2019-02-14T19:10:41.315Z,3.40
2019-02-14T19:12:07.591Z,3.20
2019-02-14T19:13:33.168Z,3.75
2019-02-14T19:15:01.258Z,3.40
2019-02-14T19:16:26.676Z,3.87
2019-02-14T19:17:52.122Z,4.00
2019-02-14T19:19:17.838Z,4.35
2019-02-14T19:20:43.416Z,4.42
2019-02-14T19:22:09.116Z,4.10
2019-02-14T19:23:34.603Z,3.60
2019-02-14T19:25:00.507Z,4.50
2019-02-14T19:26:26.106Z,4.50
2019-02-14T19:27:51.674Z,4.58
2019-02-14T19:29:17.178Z,4.30
2019-02-14T19:30:42.814Z,4.85
2019-02-14T19:32:08.382Z,5.70
2019-02-14T19:33:33.913Z,6.03
2019-02-14T19:34:59.485Z,6.83
2019-02-14T19:36:24.985Z,6.15
2019-02-14T19:37:50.465Z,6.47
2019-02-14T19:39:15.888Z,5.55
2019-02-14T19:40:41.544Z,6.17
2019-02-14T19:42:08.537Z,6.15
2019-02-14T19:43:34.026Z,5.60
2019-02-14T19:44:59.574Z,4.83
2019-02-14T19:46:25.040Z,4.73
2019-02-14T19:47:50.720Z,5.40
2019-02-14T19:49:16.274Z,5.93
2019-02-14T19:50:41.892Z,6.17
2019-02-14T19:52:12.009Z,5.90
2019-02-14T19:53:38.698Z,5.60
2019-02-14T19:55:04.360Z,6.55
2019-02-14T19:56:29.977Z,6.03
2019-02-14T19:57:55.573Z,6.15
2019-02-14T19:59:23.021Z,5.50
2019-02-14T20:00:48.647Z,6.40
2019-02-14T20:02:14.182Z,6.25
2019-02-14T20:03:39.750Z,6.73
2019-02-14T20:05:05.833Z,7.78
2019-02-14T20:06:31.420Z,7.60
2019-02-14T20:07:56.986Z,8.25
2019-02-14T20:09:22.548Z,7.10
2019-02-14T20:10:48.031Z,5.55
2019-02-14T20:12:13.555Z,5.60
2019-02-14T20:13:39.131Z,5.22
2019-02-14T20:15:04.855Z,4.45
2019-02-14T20:16:30.320Z,4.85
2019-02-14T20:17:55.748Z,4.67
2019-02-14T20:19:21.272Z,4.22
2019-02-14T20:20:46.848Z,3.98
2019-02-14T20:22:17.015Z,4.62
2019-02-14T20:23:42.627Z,3.80
2019-02-14T20:25:08.976Z,4.15
2019-02-14T20:26:34.438Z,4.80
2019-02-14T20:27:59.986Z,4.72
2019-02-14T20:29:25.437Z,4.97
2019-02-14T20:30:50.978Z,5.50
2019-02-14T20:32:16.469Z,4.75
2019-02-14T20:33:42.060Z,4.55
2019-02-14T20:35:07.860Z,4.58
2019-02-14T20:36:33.379Z,5.12
2019-02-14T20:37:58.945Z,5.35
2019-02-14T20:39:24.510Z,4.42
2019-02-14T20:40:49.998Z,3.92
2019-02-14T20:42:15.543Z,4.60
2019-02-14T20:43:40.970Z,4.05
2019-02-14T20:45:06.850Z,4.08
2019-02-14T20:46:32.314Z,5.03
2019-02-14T20:47:57.888Z,4.92
2019-02-14T20:49:23.398Z,5.05
2019-02-14T20:50:48.971Z,5.00
2019-02-14T20:52:14.576Z,4.42
2019-02-14T20:53:40.067Z,4.67
2019-02-14T20:55:06.054Z,4.90
2019-02-14T20:56:31.521Z,4.90
2019-02-14T20:57:57.034Z,4.72
2019-02-14T20:59:22.613Z,4.78
2019-02-14T21:00:48.143Z,3.85
2019-02-14T21:02:13.608Z,5.37
2019-02-14T21:03:39.288Z,4.50
2019-02-14T21:05:05.063Z,4.70
2019-02-14T21:06:30.765Z,4.37
2019-02-14T21:07:56.463Z,5.00
2019-02-14T21:09:22.219Z,5.12
2019-02-14T21:10:47.770Z,4.10
2019-02-14T21:12:13.363Z,4.75
2019-02-14T21:13:39.041Z,4.30
2019-02-14T21:15:04.960Z,4.20
2019-02-14T21:16:31.623Z,4.35
2019-02-14T21:17:57.247Z,4.90
2019-02-14T21:19:22.835Z,5.15
2019-02-14T21:20:49.640Z,5.05
2019-02-14T21:22:18.628Z,5.03
2019-02-14T21:23:42.476Z,4.83
2019-02-14T21:25:08.246Z,5.90
2019-02-14T21:26:33.930Z,5.40
2019-02-14T21:27:59.522Z,5.20
2019-02-14T21:29:25.218Z,5.40
2019-02-14T21:30:50.807Z,4.97
2019-02-14T21:32:16.380Z,5.45
2019-02-14T21:33:41.885Z,5.08
2019-02-14T21:35:10.852Z,4.50
2019-02-14T21:36:36.599Z,5.03
2019-02-14T21:38:02.080Z,4.15
2019-02-14T21:39:27.604Z,5.83
2019-02-14T21:40:53.535Z,6.83
2019-02-14T21:42:22.026Z,6.83
2019-02-14T21:43:46.078Z,6.87
2019-02-14T21:45:12.902Z,5.95
2019-02-14T21:46:38.476Z,5.87
2019-02-14T21:48:04.520Z,6.87
2019-02-14T21:49:30.154Z,7.45
2019-02-14T21:50:55.757Z,5.95
2019-02-14T21:52:21.268Z,5.75
2019-02-14T21:53:46.765Z,5.80
2019-02-14T21:55:12.356Z,6.60
2019-02-14T21:56:37.836Z,6.35
2019-02-14T21:58:04.990Z,6.80
2019-02-14T21:59:30.465Z,6.53
2019-02-14T22:00:55.958Z,5.70
2019-02-14T22:02:21.702Z,5.53
2019-02-14T22:03:47.158Z,5.72
2019-02-14T22:05:13.032Z,6.50
2019-02-14T22:06:38.525Z,6.50
2019-02-14T22:08:04.165Z,5.85
2019-02-14T22:09:29.587Z,7.12
2019-02-14T22:10:55.073Z,6.60
2019-02-14T22:12:39.026Z,7.33
2019-02-14T22:13:47.973Z,7.30
2019-02-14T22:15:15.111Z,7.10
2019-02-14T22:16:40.735Z,6.20
2019-02-14T22:18:06.268Z,6.10
2019-02-14T22:19:31.822Z,5.75
2019-02-14T22:20:57.319Z,6.03
2019-02-14T22:22:23.010Z,6.37
2019-02-14T22:23:48.671Z,6.67
2019-02-14T22:25:14.471Z,7.70
2019-02-14T22:26:40.020Z,6.00
2019-02-14T22:28:05.700Z,6.20
2019-02-14T22:29:31.407Z,6.33
2019-02-14T22:30:56.947Z,5.25
2019-02-14T22:32:22.524Z,6.65
2019-02-14T22:33:47.929Z,5.58
2019-02-14T22:35:13.460Z,6.65
2019-02-14T22:36:38.992Z,6.72
2019-02-14T22:38:05.147Z,6.35
2019-02-14T22:39:30.593Z,6.75
2019-02-14T22:40:56.047Z,7.03
2019-02-14T22:42:21.542Z,6.47
2019-02-14T22:43:47.108Z,6.83
2019-02-14T22:45:13.569Z,6.65
2019-02-14T22:46:39.332Z,7.50
2019-02-14T22:48:04.899Z,7.87
2019-02-14T22:49:30.490Z,7.40
2019-02-14T22:50:55.967Z,6.55
2019-02-14T22:52:21.458Z,7.05
2019-02-14T22:53:46.974Z,5.80
2019-02-14T22:55:12.494Z,5.70
2019-02-14T22:56:37.979Z,7.03
2019-02-14T22:58:03.402Z,5.33
2019-02-14T22:59:28.824Z,6.05
2019-02-14T23:00:59.811Z,7.00
2019-02-14T23:02:25.428Z,6.83
2019-02-14T23:03:50.948Z,6.62
2019-02-14T23:05:16.586Z,6.50
2019-02-14T23:06:42.070Z,6.58
2019-02-14T23:08:07.705Z,7.95
2019-02-14T23:09:33.299Z,6.50
2019-02-14T23:10:58.844Z,5.60
2019-02-14T23:12:24.459Z,6.78
2019-02-14T23:13:49.931Z,8.13
2019-02-14T23:15:15.911Z,7.12
2019-02-14T23:16:41.393Z,6.92
2019-02-14T23:18:10.004Z,8.00
2019-02-14T23:19:35.527Z,5.95
2019-02-14T23:21:01.027Z,5.53
2019-02-14T23:22:26.500Z,5.15
2019-02-14T23:23:51.963Z,5.87
2019-02-14T23:25:17.400Z,5.47
2019-02-14T23:26:42.919Z,4.58
2019-02-14T23:28:08.386Z,5.42
2019-02-14T23:29:33.843Z,5.00
2019-02-14T23:30:59.459Z,5.15
2019-02-14T23:32:24.974Z,4.37
2019-02-14T23:33:50.453Z,5.15
2019-02-14T23:35:15.975Z,6.03
2019-02-14T23:36:41.451Z,5.50
2019-02-14T23:38:06.918Z,5.08
2019-02-14T23:39:32.575Z,5.20
2019-02-14T23:40:58.195Z,5.37
2019-02-14T23:42:23.673Z,5.35
2019-02-14T23:43:49.262Z,6.90
2019-02-14T23:45:14.814Z,6.70
2019-02-14T23:46:40.291Z,5.15
2019-02-14T23:48:05.948Z,4.72
2019-02-14T23:49:31.428Z,5.97
2019-02-14T23:50:56.903Z,5.33
2019-02-14T23:52:22.367Z,5.72
2019-02-14T23:53:47.843Z,4.95
2019-02-14T23:55:13.316Z,5.97
2019-02-14T23:56:38.759Z,5.75
2019-02-14T23:58:04.467Z,5.30
2019-02-14T23:59:29.967Z,5.35
